createdAt,value
2018-04-01T11:59:07.785Z,56.30
2018-04-01T12:00:07.779Z,54.50
2018-04-01T12:01:07.774Z,54.40
2018-04-01T12:02:07.766Z,56.00
2018-04-01T12:03:07.760Z,52.30
2018-04-01T12:04:07.761Z,51.40
2018-04-01T12:05:07.750Z,51.20
2018-04-01T12:06:07.744Z,50.70
2018-04-01T12:07:07.739Z,49.10
2018-04-01T12:08:07.733Z,48.00
2018-04-01T12:09:07.727Z,44.70
2018-04-01T12:10:07.723Z,46.80
2018-04-01T12:11:07.717Z,47.90
2018-04-01T12:12:07.711Z,47.50
2018-04-01T12:13:07.706Z,48.20
2018-04-01T12:14:07.701Z,47.10
2018-04-01T12:15:07.695Z,46.40
2018-04-01T12:16:07.691Z,46.30
2018-04-01T12:17:07.686Z,46.00
2018-04-01T12:18:07.680Z,46.50
2018-04-01T12:19:07.675Z,45.10
2018-04-01T12:20:07.694Z,47.80
2018-04-01T12:21:07.664Z,47.20
2018-04-01T12:22:07.659Z,46.50
2018-04-01T12:23:07.663Z,46.70
2018-04-01T12:24:07.649Z,48.70
2018-04-01T12:25:07.643Z,47.70
2018-04-01T12:26:07.638Z,47.40
2018-04-01T12:27:07.633Z,48.00
2018-04-01T12:28:07.628Z,46.80
2018-04-01T12:29:07.624Z,47.50
2018-04-01T12:30:07.618Z,44.10
2018-04-01T12:31:07.613Z,42.60
2018-04-01T12:32:07.611Z,43.10
2018-04-01T12:33:07.603Z,42.40
2018-04-01T12:34:07.606Z,42.50
2018-04-01T12:35:07.593Z,41.50
2018-04-01T12:36:07.588Z,42.40
2018-04-01T12:37:07.582Z,41.70
2018-04-01T12:38:07.578Z,41.80
2018-04-01T12:39:07.573Z,43.50
2018-04-01T12:40:07.568Z,40.70
2018-04-01T12:41:07.564Z,41.10
2018-04-01T12:42:07.559Z,40.90
2018-04-01T12:43:07.555Z,42.30
2018-04-01T12:44:07.550Z,41.90
2018-04-01T12:45:07.544Z,41.90
2018-04-01T12:46:07.540Z,41.70
2018-04-01T12:47:07.535Z,39.60
2018-04-01T12:48:07.532Z,37.80
2018-04-01T12:49:07.526Z,36.70
2018-04-01T12:50:07.522Z,36.00
2018-04-01T12:51:07.517Z,37.60
2018-04-01T12:52:07.513Z,36.20
2018-04-01T12:53:07.608Z,36.70
2018-04-01T12:54:07.504Z,37.00
2018-04-01T12:55:07.500Z,39.00
2018-04-01T12:56:07.509Z,38.20
2018-04-01T12:57:07.491Z,38.60
2018-04-01T12:58:07.489Z,40.50
2018-04-01T12:59:07.483Z,39.30
2018-04-01T13:00:07.481Z,39.80
2018-04-01T13:01:07.475Z,37.40
2018-04-01T13:02:07.472Z,38.10
2018-04-01T13:03:07.466Z,40.00
2018-04-01T13:04:07.462Z,40.50
2018-04-01T13:05:07.458Z,41.00
2018-04-01T13:06:07.453Z,40.30
2018-04-01T13:07:07.451Z,42.00
2018-04-01T13:08:07.445Z,41.60
2018-04-01T13:09:07.443Z,42.10
2018-04-01T13:10:07.436Z,42.10
2018-04-01T13:11:07.432Z,42.60
2018-04-01T13:12:07.428Z,42.40
2018-04-01T13:13:07.423Z,41.50
2018-04-01T13:14:07.420Z,41.70
2018-04-01T13:15:07.414Z,40.10
2018-04-01T13:16:07.410Z,40.90
2018-04-01T13:17:07.405Z,41.10
2018-04-01T13:18:07.404Z,41.60
2018-04-01T13:19:07.397Z,39.40
2018-04-01T13:20:07.393Z,40.20
2018-04-01T13:21:07.387Z,40.20
2018-04-01T13:22:07.383Z,39.90
2018-04-01T13:23:07.381Z,41.30
2018-04-01T13:24:07.407Z,40.60
2018-04-01T13:25:07.367Z,41.50
2018-04-01T13:26:07.364Z,40.40
2018-04-01T13:27:07.359Z,40.60
2018-04-01T13:28:07.357Z,39.30
2018-04-01T13:29:07.349Z,38.10
2018-04-01T13:30:07.345Z,37.90
2018-04-01T13:31:07.340Z,38.50
2018-04-01T13:32:07.336Z,37.60
2018-04-01T13:33:07.330Z,37.10
2018-04-01T13:34:07.325Z,35.60
2018-04-01T13:35:07.372Z,36.30
2018-04-01T13:36:07.316Z,36.10
2018-04-01T13:37:07.310Z,35.90
2018-04-01T13:38:07.306Z,36.40
2018-04-01T13:39:07.302Z,37.20
2018-04-01T13:40:07.295Z,35.70
2018-04-01T13:41:07.290Z,34.70
2018-04-01T13:42:07.290Z,35.30
2018-04-01T13:43:07.282Z,35.30
2018-04-01T13:44:07.277Z,35.20
2018-04-01T13:45:07.272Z,36.10
2018-04-01T13:46:07.267Z,36.20
2018-04-01T13:47:07.263Z,36.70
2018-04-01T13:48:07.259Z,33.90
2018-04-01T13:49:07.253Z,33.30
2018-04-01T13:50:07.248Z,32.50
2018-04-01T13:51:07.244Z,31.60
2018-04-01T13:52:07.240Z,32.60
2018-04-01T13:53:07.234Z,31.10
2018-04-01T13:54:07.230Z,31.10
2018-04-01T13:55:07.225Z,31.10
2018-04-01T13:56:07.221Z,31.40
2018-04-01T13:57:07.215Z,30.90
2018-04-01T13:58:07.215Z,31.40
2018-04-01T13:59:07.207Z,31.50
2018-04-01T14:00:07.202Z,31.20
2018-04-01T14:01:07.197Z,30.30
2018-04-01T14:02:07.193Z,30.30
2018-04-01T14:03:07.190Z,30.10
2018-04-01T14:04:07.185Z,28.30
2018-04-01T14:05:07.180Z,27.70
2018-04-01T14:06:07.176Z,27.00
2018-04-01T14:07:07.172Z,26.90
2018-04-01T14:08:07.168Z,26.90
2018-04-01T14:09:07.162Z,25.30
2018-04-01T14:10:07.163Z,25.00
2018-04-01T14:11:07.156Z,24.40
2018-04-01T14:12:07.156Z,23.50
2018-04-01T14:13:07.150Z,23.70
2018-04-01T14:14:07.146Z,24.00
2018-04-01T14:15:07.144Z,22.70
2018-04-01T14:16:07.141Z,22.10
2018-04-01T14:17:07.138Z,21.70
2018-04-01T14:18:07.136Z,21.60
2018-04-01T14:19:07.134Z,20.90
2018-04-01T14:20:07.133Z,21.30
2018-04-01T14:21:07.130Z,21.10
2018-04-01T14:22:07.127Z,21.60
2018-04-01T14:23:07.227Z,22.40
2018-04-01T14:24:07.127Z,22.40
2018-04-01T14:25:07.125Z,21.50
2018-04-01T14:26:07.125Z,20.70
2018-04-01T14:32:20.260Z,19.50
2018-04-01T14:33:20.259Z,19.30
2018-04-01T14:34:20.260Z,18.80
2018-04-01T14:35:20.258Z,19.60
2018-04-01T14:36:20.259Z,20.20
2018-04-01T14:37:20.259Z,20.50
2018-04-01T14:38:20.409Z,19.00
2018-04-01T14:39:20.262Z,19.60
2018-04-01T14:40:20.258Z,19.40
2018-04-01T14:41:20.258Z,20.00
2018-04-01T14:42:20.256Z,19.60
2018-04-01T14:43:20.281Z,18.80
2018-04-01T14:44:20.255Z,19.50
2018-04-01T14:45:20.254Z,19.60
2018-04-01T14:46:20.254Z,19.30
2018-04-01T14:47:20.251Z,19.80
2018-04-01T14:48:20.249Z,19.10
2018-04-01T14:49:20.248Z,19.10
2018-04-01T14:50:20.245Z,19.70
2018-04-01T14:51:20.244Z,20.00
2018-04-01T14:52:20.242Z,20.00
2018-04-01T14:53:20.240Z,20.00
2018-04-01T14:54:20.237Z,20.70
2018-04-01T14:55:20.234Z,21.00
2018-04-01T14:56:20.281Z,19.50
2018-04-01T14:57:20.230Z,20.40
2018-04-01T14:58:20.226Z,21.20
2018-04-01T14:59:20.224Z,21.40
2018-04-01T15:00:20.220Z,22.00
2018-04-01T15:01:20.218Z,22.10
2018-04-01T15:02:20.215Z,21.30
2018-04-01T15:03:20.212Z,19.60
2018-04-01T15:04:20.208Z,17.20
2018-04-01T15:05:20.206Z,19.00
2018-04-01T15:06:20.203Z,20.10
2018-04-01T15:07:20.200Z,18.80
2018-04-01T15:08:20.219Z,18.90
2018-04-01T15:09:20.194Z,17.30
2018-04-01T15:10:20.190Z,16.60
2018-04-01T15:11:20.188Z,15.90
2018-04-01T15:12:20.184Z,16.20
2018-04-01T15:13:20.182Z,15.90
2018-04-01T15:14:20.260Z,17.80
2018-04-01T15:15:20.175Z,17.80
2018-04-01T15:16:20.171Z,18.50
2018-04-01T15:17:20.168Z,16.80
2018-04-01T15:18:20.183Z,18.00
2018-04-01T15:19:20.161Z,18.00
2018-04-01T15:20:20.157Z,16.40
2018-04-01T15:21:20.154Z,16.60
2018-04-01T15:22:20.150Z,17.00
2018-04-01T15:23:20.151Z,17.00
2018-04-01T15:24:20.152Z,15.20
2018-04-01T15:25:20.154Z,16.30
2018-04-01T15:26:20.133Z,16.00
2018-04-01T15:27:20.130Z,15.70
2018-04-01T15:28:20.127Z,16.20
2018-04-01T15:29:20.123Z,16.30
2018-04-01T15:30:20.119Z,16.90
2018-04-01T15:31:20.116Z,16.40
2018-04-01T15:32:20.111Z,16.90
2018-04-01T15:33:20.108Z,18.00
2018-04-01T15:34:20.110Z,18.90
2018-04-01T15:35:20.101Z,19.50
2018-04-01T15:36:20.101Z,19.40
2018-04-01T15:37:20.104Z,20.00
2018-04-01T15:38:20.104Z,19.60
2018-04-01T15:39:20.085Z,19.00
2018-04-01T15:40:20.084Z,19.10
2018-04-01T15:41:20.078Z,18.20
2018-04-01T15:42:20.073Z,17.60
2018-04-01T15:43:20.070Z,17.70
2018-04-01T15:44:20.074Z,18.30
2018-04-01T15:45:20.063Z,18.20
2018-04-01T15:46:20.058Z,18.30
2018-04-01T15:47:20.055Z,19.40
2018-04-01T15:48:20.056Z,18.90
2018-04-01T15:49:20.051Z,19.00
2018-04-01T15:50:20.044Z,19.40
2018-04-01T15:51:20.039Z,18.70
2018-04-01T15:52:20.082Z,18.50
2018-04-01T15:53:20.033Z,19.40
2018-04-01T15:54:20.027Z,19.60
2018-04-01T15:55:20.025Z,19.70
2018-04-01T15:56:20.020Z,20.20
2018-04-01T15:57:20.048Z,19.40
2018-04-01T15:58:20.012Z,19.40
2018-04-01T15:59:20.008Z,18.90
2018-04-01T16:00:20.003Z,19.30
2018-04-01T16:01:20.000Z,20.00
2018-04-01T16:02:19.995Z,19.30
2018-04-01T16:03:19.993Z,20.40
2018-04-01T16:04:19.988Z,19.50
2018-04-01T16:05:19.984Z,20.30
2018-04-01T16:06:19.979Z,22.40
2018-04-01T16:07:19.975Z,22.30
2018-04-01T16:08:20.070Z,26.20
2018-04-01T16:09:19.967Z,27.30
2018-04-01T16:10:19.962Z,27.20
2018-04-01T16:11:19.958Z,27.40
2018-04-01T16:12:19.954Z,27.00
2018-04-01T16:13:19.949Z,27.00
2018-04-01T16:14:19.949Z,27.40
2018-04-01T16:15:19.941Z,27.00
2018-04-01T16:16:19.936Z,27.30
2018-04-01T16:17:19.932Z,27.40
2018-04-01T16:18:19.929Z,27.30
2018-04-01T16:19:19.926Z,27.80
2018-04-01T16:20:19.919Z,27.90
2018-04-01T16:21:19.914Z,28.20
2018-04-01T16:22:19.909Z,29.10
2018-04-01T16:23:19.904Z,29.20
2018-04-01T16:24:19.900Z,30.50
2018-04-01T16:25:19.897Z,30.80
2018-04-01T16:26:19.890Z,32.20
2018-04-01T16:27:19.886Z,30.60
2018-04-01T16:28:19.884Z,28.30
2018-04-01T16:29:19.876Z,28.10
2018-04-01T16:30:19.872Z,27.20
2018-04-01T16:31:19.866Z,25.20
2018-04-01T16:32:19.862Z,26.60
2018-04-01T16:33:19.857Z,25.50
2018-04-01T16:34:19.849Z,25.80
2018-04-01T16:35:19.846Z,25.30
2018-04-01T16:36:19.841Z,25.50
2018-04-01T16:37:19.835Z,27.40
2018-04-01T16:38:19.829Z,27.60
2018-04-01T16:39:19.823Z,27.80
2018-04-01T16:40:19.818Z,27.40
2018-04-01T16:41:19.814Z,27.60
2018-04-01T16:42:19.807Z,27.90
2018-04-01T16:43:19.802Z,25.80
2018-04-01T16:44:19.797Z,26.40
2018-04-01T16:45:19.791Z,26.40
2018-04-01T16:46:19.849Z,24.40
2018-04-01T16:47:19.781Z,25.70
2018-04-01T16:48:19.773Z,24.90
2018-04-01T16:49:19.774Z,25.50
2018-04-01T16:50:19.761Z,24.90
2018-04-01T16:51:19.755Z,23.70
2018-04-01T16:52:19.749Z,22.90
2018-04-01T16:53:19.744Z,22.00
2018-04-01T16:54:19.738Z,22.80
2018-04-01T16:55:19.735Z,23.50
2018-04-01T16:56:19.727Z,25.10
2018-04-01T16:57:19.721Z,24.00
2018-04-01T16:58:19.714Z,23.70
2018-04-01T16:59:19.708Z,22.20
2018-04-01T17:00:19.702Z,22.30
2018-04-01T17:01:19.698Z,20.70
2018-04-01T17:02:19.690Z,21.90
2018-04-01T17:03:19.685Z,21.30
2018-04-01T17:04:19.679Z,20.50
2018-04-01T17:05:19.673Z,19.80
2018-04-01T17:06:19.666Z,20.10
2018-04-01T17:07:19.668Z,20.00
2018-04-01T17:08:19.655Z,21.00
2018-04-01T17:09:19.716Z,20.00
2018-04-01T17:10:19.642Z,20.40
2018-04-01T17:11:19.636Z,20.10
2018-04-01T17:12:19.632Z,19.60
2018-04-01T17:13:19.623Z,21.40
2018-04-01T17:14:19.620Z,21.90
2018-04-01T17:15:19.611Z,20.30
2018-04-01T17:16:19.612Z,21.00
2018-04-01T17:17:19.600Z,19.70
2018-04-01T17:18:19.593Z,19.50
2018-04-01T17:19:19.587Z,19.70
2018-04-01T17:20:19.581Z,19.60
2018-04-01T17:21:19.586Z,19.80
2018-04-01T17:22:19.568Z,19.50
2018-04-01T17:23:19.562Z,19.50
2018-04-01T17:24:19.556Z,19.40
2018-04-01T17:25:19.551Z,21.00
2018-04-01T17:26:19.543Z,21.10
2018-04-01T17:27:19.539Z,22.10
2018-04-01T17:28:19.531Z,21.70
2018-04-01T17:29:19.525Z,22.00
2018-04-01T17:30:19.519Z,22.20
2018-04-01T17:31:19.511Z,22.80
2018-04-01T17:32:19.505Z,22.80
2018-04-01T17:33:19.500Z,22.00
2018-04-01T17:34:19.497Z,23.00
2018-04-01T17:35:19.505Z,23.00
2018-04-01T17:36:19.481Z,23.30
2018-04-01T17:37:19.474Z,23.70
2018-04-01T17:38:19.567Z,24.50
2018-04-01T17:39:19.478Z,24.70
2018-04-01T17:40:19.455Z,25.30
2018-04-01T17:41:19.471Z,25.90
2018-04-01T17:42:19.442Z,25.80
2018-04-01T17:43:19.434Z,24.60
2018-04-01T17:44:19.429Z,25.00
2018-04-01T17:45:19.424Z,24.70
2018-04-01T17:46:19.416Z,26.70
2018-04-01T17:47:19.410Z,26.90
2018-04-01T17:48:19.403Z,26.80
2018-04-01T17:49:19.398Z,28.50
2018-04-01T17:50:19.391Z,28.00
2018-04-01T17:51:19.384Z,28.30
2018-04-01T17:52:19.418Z,26.80
2018-04-01T17:53:19.372Z,27.60
2018-04-01T17:54:19.369Z,26.80
2018-04-01T17:55:19.358Z,25.80
2018-04-01T17:56:19.451Z,25.70
2018-04-01T17:57:19.348Z,26.20
2018-04-01T17:58:19.340Z,25.70
2018-04-01T17:59:19.333Z,26.90
2018-04-01T18:00:19.326Z,26.70
2018-04-01T18:01:19.319Z,27.50
2018-04-01T18:02:19.358Z,28.10
2018-04-01T18:03:19.327Z,27.70
2018-04-01T18:04:19.300Z,31.90
2018-04-01T18:05:19.294Z,32.50
2018-04-01T18:06:19.287Z,37.60
2018-04-01T18:07:19.281Z,44.50
2018-04-01T18:08:19.273Z,47.20
2018-04-01T18:09:19.269Z,48.10
2018-04-01T18:10:19.267Z,49.80
2018-04-01T18:11:19.268Z,51.10
2018-04-01T18:12:19.256Z,51.20
2018-04-01T18:13:19.242Z,52.00
2018-04-01T18:14:19.234Z,52.70
2018-04-01T18:15:19.229Z,51.50
2018-04-01T18:16:19.221Z,47.80
2018-04-01T18:17:19.217Z,49.60
2018-04-01T18:18:19.207Z,47.30
2018-04-01T18:19:19.201Z,47.30
2018-04-01T18:20:19.445Z,47.60
2018-04-01T18:21:19.188Z,46.70
2018-04-01T18:22:19.181Z,43.60
2018-04-01T18:23:19.175Z,44.60
2018-04-01T18:24:19.168Z,42.50
2018-04-01T18:25:19.161Z,40.80
2018-04-01T18:26:19.154Z,40.10
2018-04-01T18:27:19.148Z,39.00
2018-04-01T18:28:19.142Z,38.30
2018-04-01T18:29:19.134Z,37.50
2018-04-01T18:30:19.127Z,37.20
2018-04-01T18:31:19.179Z,38.80
2018-04-01T18:32:19.114Z,36.80
2018-04-01T18:33:19.108Z,38.50
2018-04-01T18:34:19.102Z,40.00
2018-04-01T18:35:19.093Z,38.40
2018-04-01T18:36:19.087Z,40.90
2018-04-01T18:37:19.081Z,39.60
2018-04-01T18:38:19.072Z,39.60
2018-04-01T18:39:19.068Z,39.30
2018-04-01T18:40:19.060Z,40.00
2018-04-01T18:41:19.053Z,40.30
2018-04-01T18:42:19.096Z,42.30
2018-04-01T18:43:19.040Z,42.20
2018-04-01T18:44:19.037Z,44.00
2018-04-01T18:45:19.025Z,41.60
2018-04-01T18:46:19.018Z,43.80
2018-04-01T18:47:19.012Z,45.00
2018-04-01T18:48:19.005Z,42.60
2018-04-01T18:49:19.049Z,42.10
2018-04-01T18:50:18.990Z,42.80
2018-04-01T18:51:18.984Z,43.00
2018-04-01T18:52:18.977Z,41.50
2018-04-01T18:53:18.972Z,40.10
2018-04-01T18:54:18.963Z,39.70
2018-04-01T18:55:18.957Z,38.90
2018-04-01T18:56:18.949Z,37.20
2018-04-01T18:57:18.944Z,36.20
2018-04-01T18:58:18.935Z,36.00
2018-04-01T18:59:18.928Z,35.20
2018-04-01T19:00:18.922Z,35.40
2018-04-01T19:01:18.915Z,34.80
2018-04-01T19:02:18.913Z,33.50
2018-04-01T19:03:18.902Z,34.70
2018-04-01T19:04:18.895Z,35.10
2018-04-01T19:05:18.888Z,37.30
2018-04-01T19:06:18.881Z,36.40
2018-04-01T19:07:18.874Z,35.10
2018-04-01T19:08:18.973Z,36.60
2018-04-01T19:09:18.860Z,36.90
2018-04-01T19:10:18.853Z,36.30
2018-04-01T19:11:18.848Z,35.90
2018-04-01T19:12:18.839Z,35.80
2018-04-01T19:13:18.834Z,36.70
2018-04-01T19:14:18.825Z,36.10
2018-04-01T19:15:18.819Z,46.00
2018-04-01T19:16:18.813Z,52.40
2018-04-01T19:17:18.807Z,52.20
2018-04-01T19:18:18.799Z,53.00
2018-04-01T19:19:18.793Z,58.70
2018-04-01T19:20:18.786Z,61.90
2018-04-01T19:21:18.779Z,55.80
2018-04-01T19:22:18.774Z,52.80
2018-04-01T19:23:18.766Z,51.80
2018-04-01T19:24:18.759Z,51.80
2018-04-01T19:25:18.753Z,47.80
2018-04-01T19:26:18.746Z,43.60
2018-04-01T19:27:18.739Z,43.80
2018-04-01T19:28:18.734Z,43.80
2018-04-01T19:29:18.727Z,43.90
2018-04-01T19:30:18.719Z,44.90
2018-04-01T19:31:18.713Z,45.80
2018-04-01T19:32:18.705Z,46.90
2018-04-01T19:33:18.700Z,50.10
2018-04-01T19:34:18.694Z,48.20
2018-04-01T19:35:18.687Z,49.80
2018-04-01T19:36:18.681Z,51.00
2018-04-01T19:37:18.674Z,50.30
2018-04-01T19:38:18.668Z,48.70
2018-04-01T19:39:18.661Z,56.50
2018-04-01T19:40:18.660Z,81.80
2018-04-01T19:41:18.649Z,82.30
2018-04-01T19:42:18.642Z,87.20
2018-04-01T19:43:18.637Z,91.80
2018-04-01T19:44:18.630Z,95.80
2018-04-01T19:45:18.623Z,96.30
2018-04-01T19:46:18.616Z,88.00
2018-04-01T19:47:18.608Z,82.70
2018-04-01T19:48:18.602Z,77.60
2018-04-01T19:49:18.598Z,77.20
2018-04-01T19:50:18.588Z,73.40
2018-04-01T19:51:18.581Z,72.00
2018-04-01T19:52:18.575Z,73.60
2018-04-01T19:53:18.569Z,71.40
2018-04-01T19:54:18.561Z,68.30
2018-04-01T19:55:18.554Z,65.70
2018-04-01T19:56:18.547Z,68.90
2018-04-01T19:57:18.540Z,71.00
2018-04-01T19:58:18.533Z,73.20
2018-04-01T19:59:18.526Z,72.20
2018-04-01T20:00:18.520Z,75.50
2018-04-01T20:01:18.512Z,73.70
2018-04-01T20:02:18.505Z,72.90
2018-04-01T20:03:18.498Z,71.90
2018-04-01T20:04:18.491Z,72.30
2018-04-01T20:05:18.484Z,68.10
2018-04-01T20:06:18.476Z,66.90
2018-04-01T20:07:18.470Z,67.10
2018-04-01T20:08:18.463Z,68.30
2018-04-01T20:09:18.465Z,70.60
2018-04-01T20:10:18.464Z,70.70
2018-04-01T20:11:18.444Z,66.70
2018-04-01T20:12:18.496Z,66.60
2018-04-01T20:13:18.433Z,69.60
2018-04-01T20:14:18.423Z,68.70
2018-04-01T20:15:18.415Z,69.80
2018-04-01T20:16:18.410Z,69.10
2018-04-01T20:17:18.409Z,70.20
2018-04-01T20:18:18.408Z,71.00
2018-04-01T20:19:18.391Z,67.40
2018-04-01T20:20:18.383Z,71.00
2018-04-01T20:21:18.376Z,72.40
2018-04-01T20:22:18.369Z,72.60
2018-04-01T20:23:18.365Z,68.50
2018-04-01T20:24:18.356Z,68.00
2018-04-01T20:25:18.350Z,70.40
2018-04-01T20:26:18.592Z,70.30
2018-04-01T20:27:18.351Z,69.90
2018-04-01T20:28:18.329Z,71.10
2018-04-01T20:29:18.322Z,69.40
2018-04-01T20:30:18.315Z,66.50
2018-04-01T20:31:18.308Z,63.80
2018-04-01T20:32:18.301Z,67.00
2018-04-01T20:33:18.294Z,68.10
2018-04-01T20:34:18.291Z,67.50
2018-04-01T20:35:18.283Z,66.00
2018-04-01T20:36:18.274Z,67.00
2018-04-01T20:37:18.267Z,65.30
2018-04-01T20:38:18.360Z,62.40
2018-04-01T20:39:18.254Z,64.40
2018-04-01T20:40:18.246Z,65.70
2018-04-01T20:41:18.240Z,62.90
2018-04-01T20:42:18.256Z,65.40
2018-04-01T20:43:18.226Z,73.70
2018-04-01T20:44:18.220Z,74.00
2018-04-01T20:45:18.214Z,71.50
2018-04-01T20:46:18.206Z,70.30
2018-04-01T20:47:18.200Z,70.40
2018-04-01T20:48:18.193Z,69.40
2018-04-01T20:49:18.187Z,71.10
2018-04-01T20:50:18.178Z,69.80
2018-04-01T20:51:18.173Z,70.60
2018-04-01T20:52:18.166Z,70.50
2018-04-01T20:53:18.159Z,75.40
2018-04-01T20:54:18.152Z,79.20
2018-04-01T20:55:18.145Z,88.60
2018-04-01T20:56:18.193Z,87.90
2018-04-01T20:57:18.132Z,83.40
2018-04-01T20:58:18.124Z,85.20
2018-04-01T20:59:18.118Z,81.60
2018-04-01T21:00:18.110Z,80.90
2018-04-01T21:01:18.103Z,83.20
2018-04-01T21:02:18.102Z,80.30
2018-04-01T21:03:18.090Z,81.10
2018-04-01T21:04:18.090Z,76.10
2018-04-01T21:05:18.076Z,76.10
2018-04-01T21:06:18.073Z,77.90
2018-04-01T21:07:18.062Z,78.50
2018-04-01T21:08:18.055Z,75.60
2018-04-01T21:09:18.049Z,75.80
2018-04-01T21:10:18.044Z,73.00
2018-04-01T21:11:18.035Z,73.40
2018-04-01T21:12:18.029Z,72.50
2018-04-01T21:13:18.022Z,72.70
2018-04-01T21:14:18.015Z,72.10
2018-04-01T21:15:18.008Z,69.10
2018-04-01T21:16:18.000Z,69.20
2018-04-01T21:17:17.996Z,68.80
2018-04-01T21:18:17.989Z,69.60
2018-04-01T21:19:17.982Z,69.40
2018-04-01T21:20:17.976Z,70.80
2018-04-01T21:21:17.969Z,72.90
2018-04-01T21:22:17.964Z,71.50
2018-04-01T21:23:17.956Z,70.20
2018-04-01T21:24:17.950Z,71.50
2018-04-01T21:25:17.943Z,75.00
2018-04-01T21:26:17.935Z,72.30
2018-04-01T21:27:17.930Z,72.70
2018-04-01T21:28:17.924Z,72.30
2018-04-01T21:29:17.919Z,71.60
2018-04-01T21:30:17.910Z,73.00
2018-04-01T21:31:17.904Z,71.60
2018-04-01T21:32:17.898Z,72.20
2018-04-01T21:33:17.892Z,74.00
2018-04-01T21:34:17.885Z,74.40
2018-04-01T21:35:17.879Z,72.00
2018-04-01T21:36:17.872Z,75.30
2018-04-01T21:37:17.867Z,74.50
2018-04-01T21:38:17.860Z,76.00
2018-04-01T21:39:17.854Z,78.90
2018-04-01T21:40:17.848Z,80.40
2018-04-01T21:41:17.842Z,77.80
2018-04-01T21:42:17.834Z,80.60
2018-04-01T21:43:17.829Z,80.20
2018-04-01T21:44:17.824Z,81.20
2018-04-01T21:45:17.817Z,80.20
2018-04-01T21:46:17.810Z,81.50
2018-04-01T21:47:17.803Z,81.00
2018-04-01T21:48:17.799Z,79.40
2018-04-01T21:49:17.794Z,79.90
2018-04-01T21:50:17.786Z,79.80
2018-04-01T21:51:17.785Z,79.40
2018-04-01T21:52:17.774Z,79.70
2018-04-01T21:53:17.768Z,79.00
2018-04-01T21:54:17.761Z,79.90
2018-04-01T21:55:17.755Z,79.80
2018-04-01T21:56:17.751Z,77.90
2018-04-01T21:57:17.744Z,78.20
2018-04-01T21:58:17.740Z,78.80
2018-04-01T21:59:17.732Z,77.60
2018-04-01T22:00:17.730Z,78.00
2018-04-01T22:01:17.721Z,79.10
2018-04-01T22:02:17.718Z,77.90
2018-04-01T22:03:17.707Z,80.10
2018-04-01T22:04:17.701Z,78.50
2018-04-01T22:05:17.696Z,78.70
2018-04-01T22:06:17.695Z,79.40
2018-04-01T22:07:17.683Z,79.40
2018-04-01T22:08:17.679Z,80.90
2018-04-01T22:09:17.671Z,78.00
2018-04-01T22:10:17.665Z,79.10
2018-04-01T22:11:17.659Z,79.20
2018-04-01T22:12:17.654Z,80.50
2018-04-01T22:13:17.648Z,79.40
2018-04-01T22:14:17.641Z,81.60
2018-04-01T22:15:17.640Z,82.60
2018-04-01T22:16:17.629Z,79.70
2018-04-01T22:17:17.625Z,79.70
2018-04-01T22:18:17.616Z,79.90
2018-04-01T22:19:17.611Z,81.20
2018-04-01T22:20:17.604Z,78.70
2018-04-01T22:21:17.606Z,81.00
2018-04-01T22:22:17.599Z,78.90
2018-04-01T22:23:17.601Z,80.80
2018-04-01T22:24:17.580Z,83.20
2018-04-01T22:25:17.575Z,81.90
2018-04-01T22:26:17.567Z,84.60
2018-04-01T22:27:17.560Z,86.80
2018-04-01T22:28:17.560Z,87.70
2018-04-01T22:29:17.547Z,89.50
2018-04-01T22:30:17.546Z,92.40
2018-04-01T22:31:17.548Z,94.20
2018-04-01T22:32:17.528Z,94.50
2018-04-01T22:33:17.520Z,95.40
2018-04-01T22:34:17.513Z,99.30
2018-04-01T22:35:17.505Z,102.00
2018-04-01T22:36:17.499Z,103.40
2018-04-01T22:37:17.493Z,104.90
2018-04-01T22:38:17.486Z,103.90
2018-04-01T22:39:17.479Z,105.80
2018-04-01T22:40:17.472Z,103.60
2018-04-01T22:41:17.465Z,100.80
2018-04-01T22:42:17.458Z,99.10
2018-04-01T22:43:17.452Z,96.00
2018-04-01T22:44:17.495Z,95.90
2018-04-01T22:45:17.439Z,95.00
2018-04-01T22:46:17.430Z,87.00
2018-04-01T22:47:17.425Z,85.80
2018-04-01T22:48:17.418Z,85.70
2018-04-01T22:49:17.411Z,85.00
2018-04-01T22:50:17.404Z,83.30
2018-04-01T22:51:17.397Z,81.40
2018-04-01T22:52:17.390Z,80.70
2018-04-01T22:53:17.385Z,79.90
2018-04-01T22:54:17.377Z,78.60
2018-04-01T22:55:17.371Z,76.60
2018-04-01T22:56:17.365Z,73.40
2018-04-01T22:57:17.357Z,72.70
2018-04-01T22:58:17.350Z,68.00
2018-04-01T22:59:17.344Z,69.50
2018-04-01T23:00:17.337Z,69.50
2018-04-01T23:01:17.335Z,69.70
2018-04-01T23:02:17.323Z,71.40
2018-04-01T23:03:17.317Z,72.30
2018-04-01T23:04:17.312Z,71.50
2018-04-01T23:05:17.305Z,72.50
2018-04-01T23:06:17.297Z,73.50
2018-04-01T23:07:17.291Z,73.80
2018-04-01T23:08:17.284Z,74.00
2018-04-01T23:09:17.277Z,76.50
2018-04-01T23:10:17.316Z,75.40
2018-04-01T23:11:17.264Z,77.20
2018-04-01T23:12:17.263Z,76.30
2018-04-01T23:13:17.251Z,75.70
2018-04-01T23:14:17.244Z,79.50
2018-04-01T23:15:17.236Z,75.60
2018-04-01T23:16:17.229Z,77.80
2018-04-01T23:17:17.224Z,81.00
2018-04-01T23:18:17.214Z,83.30
2018-04-01T23:19:17.209Z,84.40
2018-04-01T23:20:17.204Z,86.80
2018-04-01T23:21:17.196Z,89.60
2018-04-01T23:22:17.189Z,90.70
2018-04-01T23:23:17.210Z,89.70
2018-04-01T23:24:17.178Z,90.50
2018-04-01T23:25:17.176Z,91.10
2018-04-01T23:26:17.162Z,91.60
2018-04-01T23:27:17.161Z,92.80
2018-04-01T23:28:17.195Z,92.10
2018-04-01T23:29:17.145Z,99.20
2018-04-01T23:30:17.134Z,94.80
2018-04-01T23:31:17.127Z,94.90
2018-04-01T23:32:17.123Z,97.90
2018-04-01T23:33:17.114Z,101.30
2018-04-01T23:34:17.108Z,101.60
2018-04-01T23:35:17.108Z,103.00
2018-04-01T23:36:17.095Z,102.00
2018-04-01T23:37:17.086Z,106.60
2018-04-01T23:38:17.142Z,107.70
2018-04-01T23:39:17.073Z,110.10
2018-04-01T23:40:17.066Z,111.50
2018-04-01T23:41:17.064Z,111.70
2018-04-01T23:42:17.054Z,113.50
2018-04-01T23:43:17.043Z,115.60
2018-04-01T23:44:17.040Z,112.70
2018-04-01T23:45:17.032Z,112.60
2018-04-01T23:46:17.025Z,114.20
2018-04-01T23:47:17.019Z,115.50
2018-04-01T23:48:17.009Z,114.00
2018-04-01T23:49:17.003Z,117.10
2018-04-01T23:50:16.994Z,119.00
2018-04-01T23:51:16.987Z,116.70
2018-04-01T23:52:16.981Z,116.80
2018-04-01T23:53:16.977Z,120.60
2018-04-01T23:54:16.970Z,120.20
2018-04-01T23:55:16.958Z,121.60
2018-04-01T23:56:16.952Z,120.10
2018-04-01T23:57:16.945Z,122.40
2018-04-01T23:58:16.936Z,123.30
2018-04-01T23:59:16.929Z,122.10
